createdAt,value
2023-08-04T00:00:08.114Z,15.93
2023-08-04T00:02:34.855Z,15.51
2023-08-04T00:05:01.636Z,15.83
2023-08-04T00:07:28.530Z,14.45
2023-08-04T00:09:55.522Z,15.67
2023-08-04T00:12:22.521Z,15.57
2023-08-04T00:14:50.102Z,14.47
2023-08-04T00:17:17.592Z,15.83
2023-08-04T00:19:44.980Z,15.24
2023-08-04T00:22:11.818Z,15.84
2023-08-04T00:24:38.502Z,15.41
2023-08-04T00:27:07.891Z,15.78
2023-08-04T00:29:34.642Z,15.59
2023-08-04T00:32:01.425Z,15.61
2023-08-04T00:34:28.158Z,15.50
2023-08-04T00:36:55.167Z,15.70
2023-08-04T00:39:24.314Z,15.29
2023-08-04T00:41:51.229Z,15.64
2023-08-04T00:44:17.949Z,15.36
2023-08-04T00:46:48.153Z,15.61
2023-08-04T00:49:19.542Z,15.52
2023-08-04T00:51:48.155Z,14.11
2023-08-04T00:54:18.039Z,14.80
2023-08-04T00:56:45.308Z,15.49
2023-08-04T00:59:12.392Z,14.95
2023-08-04T01:01:39.321Z,14.86
2023-08-04T01:04:06.299Z,14.41
2023-08-04T01:07:10.426Z,15.41
2023-08-04T01:10:14.930Z,15.38
2023-08-04T01:13:03.308Z,15.34
2023-08-04T01:15:33.294Z,15.10
2023-08-04T01:18:01.025Z,14.91
2023-08-04T01:20:28.920Z,14.29
2023-08-04T01:22:56.096Z,13.67
2023-08-04T01:25:33.891Z,13.70
2023-08-04T01:28:07.252Z,14.66
2023-08-04T01:30:34.931Z,14.06
2023-08-04T01:33:01.953Z,14.73
2023-08-04T01:35:32.761Z,15.15
2023-08-04T01:37:59.886Z,14.60
2023-08-04T01:40:27.017Z,14.46
2023-08-04T01:42:53.940Z,13.62
2023-08-04T01:45:20.969Z,13.45
2023-08-04T01:47:49.795Z,14.67
2023-08-04T01:50:16.603Z,13.51
2023-08-04T01:52:43.688Z,13.52
2023-08-04T01:55:10.577Z,13.64
2023-08-04T01:57:37.473Z,14.47
2023-08-04T02:00:07.945Z,15.01
2023-08-04T02:02:37.272Z,14.90
2023-08-04T02:05:04.324Z,13.98
2023-08-04T02:07:31.305Z,13.14
2023-08-04T02:09:58.612Z,14.41
2023-08-04T02:12:25.509Z,14.54
2023-08-04T02:14:52.459Z,14.47
2023-08-04T02:17:19.342Z,14.97
2023-08-04T02:19:46.108Z,13.93
2023-08-04T02:22:12.987Z,14.28
2023-08-04T02:24:39.789Z,13.58
2023-08-04T02:27:07.004Z,13.97
2023-08-04T02:29:33.876Z,14.69
2023-08-04T02:32:00.657Z,13.93
2023-08-04T02:34:27.533Z,13.43
2023-08-04T02:36:56.727Z,14.78
2023-08-04T02:39:23.557Z,14.99
2023-08-04T02:41:50.581Z,14.46
2023-08-04T02:44:17.399Z,14.02
2023-08-04T02:46:46.562Z,15.00
2023-08-04T02:49:13.425Z,14.66
2023-08-04T02:51:40.309Z,14.55
2023-08-04T02:54:07.444Z,13.68
2023-08-04T02:56:36.496Z,14.51
2023-08-04T02:59:07.679Z,14.65
2023-08-04T03:01:34.776Z,15.01
2023-08-04T03:04:01.891Z,13.79
2023-08-04T03:06:28.515Z,14.62
2023-08-04T03:08:55.355Z,15.02
2023-08-04T03:11:22.252Z,14.50
2023-08-04T03:13:49.127Z,13.53
2023-08-04T03:16:16.199Z,14.12
2023-08-04T03:18:45.932Z,14.60
2023-08-04T03:21:12.891Z,14.51
2023-08-04T03:23:39.720Z,14.17
2023-08-04T03:26:06.610Z,14.29
2023-08-04T03:28:33.939Z,14.27
2023-08-04T03:31:01.054Z,14.45
2023-08-04T03:33:27.755Z,15.01
2023-08-04T03:35:55.080Z,14.00
2023-08-04T03:38:22.010Z,15.04
2023-08-04T03:40:49.151Z,14.22
2023-08-04T03:43:16.089Z,13.83
2023-08-04T03:45:45.388Z,14.50
2023-08-04T03:48:12.238Z,15.07
2023-08-04T03:50:39.802Z,15.05
2023-08-04T03:53:11.233Z,14.32
2023-08-04T03:55:39.301Z,14.14
2023-08-04T03:58:06.315Z,14.91
2023-08-04T04:00:33.109Z,15.06
2023-08-04T04:03:00.030Z,15.05
2023-08-04T04:05:26.979Z,14.74
2023-08-04T04:07:53.918Z,14.80
2023-08-04T04:10:20.974Z,15.04
2023-08-04T04:12:47.912Z,14.62
2023-08-04T04:15:14.715Z,14.57
2023-08-04T04:17:41.736Z,13.61
2023-08-04T04:20:09.116Z,14.72
2023-08-04T04:22:35.967Z,15.01
2023-08-04T04:25:04.009Z,14.99
2023-08-04T04:27:30.994Z,13.47
2023-08-04T04:29:57.912Z,13.95
2023-08-04T04:32:24.938Z,14.79
2023-08-04T04:34:52.071Z,13.33
2023-08-04T04:37:18.865Z,13.96
2023-08-04T04:39:47.204Z,14.19
2023-08-04T04:42:14.102Z,14.92
2023-08-04T04:44:42.069Z,14.92
2023-08-04T04:47:11.404Z,14.90
2023-08-04T04:49:38.181Z,13.82
2023-08-04T04:52:06.557Z,13.68
2023-08-04T04:54:33.491Z,13.93
2023-08-04T04:57:02.714Z,14.90
2023-08-04T04:59:29.793Z,13.88
2023-08-04T05:01:56.669Z,13.96
2023-08-04T05:04:23.486Z,13.89
2023-08-04T05:06:50.512Z,14.13
2023-08-04T05:09:17.488Z,14.38
2023-08-04T05:11:44.500Z,14.20
2023-08-04T05:14:11.496Z,14.33
2023-08-04T05:16:38.278Z,14.47
2023-08-04T05:19:05.483Z,14.68
2023-08-04T05:21:32.497Z,13.58
2023-08-04T05:23:59.236Z,13.85
2023-08-04T05:26:26.374Z,15.12
2023-08-04T05:28:53.338Z,13.78
2023-08-04T05:31:20.253Z,14.66
2023-08-04T05:33:49.211Z,15.23
2023-08-04T05:36:15.925Z,14.56
2023-08-04T05:38:42.681Z,14.45
2023-08-04T05:41:09.516Z,15.33
2023-08-04T05:43:36.402Z,14.39
2023-08-04T05:46:05.018Z,14.47
2023-08-04T05:48:37.624Z,15.23
2023-08-04T05:51:04.587Z,14.55
2023-08-04T05:53:31.563Z,14.81
2023-08-04T05:55:58.523Z,15.56
2023-08-04T05:58:25.490Z,15.07
2023-08-04T06:00:52.847Z,15.62
2023-08-04T06:03:24.599Z,15.23
2023-08-04T06:05:51.718Z,14.85
2023-08-04T06:08:21.008Z,14.27
2023-08-04T06:10:48.000Z,15.76
2023-08-04T06:13:17.400Z,15.58
2023-08-04T06:15:44.302Z,15.84
2023-08-04T06:18:17.372Z,15.28
2023-08-04T06:21:19.138Z,14.25
2023-08-04T06:23:48.663Z,16.03
2023-08-04T06:26:15.751Z,14.84
2023-08-04T06:28:48.814Z,15.45
2023-08-04T06:31:25.130Z,15.93
2023-08-04T06:36:44.514Z,16.33
2023-08-04T06:39:11.387Z,14.76
2023-08-04T06:41:49.403Z,15.64
2023-08-04T06:44:16.425Z,15.58
2023-08-04T06:46:43.430Z,16.55
2023-08-04T06:49:10.839Z,15.83
2023-08-04T06:51:38.285Z,15.68
2023-08-04T06:54:05.401Z,15.08
2023-08-04T06:56:38.261Z,16.74
2023-08-04T06:59:08.105Z,16.28
2023-08-04T07:02:25.328Z,16.27
2023-08-04T07:05:37.777Z,15.22
2023-08-04T07:09:02.302Z,16.96
2023-08-04T07:12:08.800Z,15.48
2023-08-04T07:14:48.414Z,15.34
2023-08-04T07:17:15.572Z,16.06
2023-08-04T07:20:03.640Z,16.27
2023-08-04T07:23:48.147Z,16.82
2023-08-04T07:26:14.975Z,16.42
2023-08-04T07:31:55.018Z,17.46
2023-08-04T07:35:01.170Z,16.22
2023-08-04T07:37:33.975Z,16.24
2023-08-04T07:40:01.279Z,16.51
2023-08-04T07:42:28.397Z,17.76
2023-08-04T07:45:33.635Z,17.89
2023-08-04T07:48:29.907Z,17.00
2023-08-04T07:50:58.829Z,18.10
2023-08-04T07:53:26.783Z,17.27
2023-08-04T07:56:05.343Z,17.76
2023-08-04T07:58:38.035Z,18.05
2023-08-04T08:01:12.143Z,17.11
2023-08-04T08:03:41.850Z,17.90
2023-08-04T08:06:11.616Z,18.69
2023-08-04T08:09:57.630Z,18.80
2023-08-04T08:16:59.409Z,19.07
2023-08-04T08:35:40.693Z,19.70
2023-08-04T08:38:07.518Z,19.22
2023-08-04T08:40:45.000Z,19.86
2023-08-04T08:43:15.445Z,19.66
2023-08-04T08:45:44.768Z,19.55
2023-08-04T08:48:12.755Z,20.12
2023-08-04T08:50:40.747Z,20.20
2023-08-04T08:53:07.377Z,20.26
2023-08-04T08:55:35.182Z,20.16
2023-08-04T08:58:07.930Z,20.40
2023-08-04T09:00:37.913Z,19.93
2023-08-04T09:03:32.625Z,19.75
2023-08-04T09:06:09.866Z,19.36
2023-08-04T09:09:07.024Z,20.71
2023-08-04T09:11:40.875Z,19.96
2023-08-04T09:14:15.932Z,20.01
2023-08-04T09:20:43.192Z,20.77
2023-08-04T09:26:34.684Z,19.67
2023-08-04T09:29:49.620Z,20.18
2023-08-04T09:33:06.649Z,21.00
2023-08-04T09:35:47.127Z,19.95
2023-08-04T09:38:44.650Z,20.28
2023-08-04T09:41:16.159Z,20.32
2023-08-04T09:47:16.745Z,21.39
2023-08-04T09:54:30.115Z,21.64
2023-08-04T10:01:01.092Z,20.66
2023-08-04T10:04:10.143Z,21.84
2023-08-04T10:07:59.400Z,21.87
2023-08-04T10:10:28.488Z,20.69
2023-08-04T10:12:59.475Z,21.58
2023-08-04T10:15:34.828Z,21.96
2023-08-04T10:18:31.865Z,21.54
2023-08-04T10:25:00.809Z,22.04
2023-08-04T10:59:28.662Z,23.03
2023-08-04T11:08:46.237Z,23.19
2023-08-04T11:11:23.417Z,21.79
2023-08-04T11:13:58.586Z,22.06
2023-08-04T11:16:26.628Z,22.40
2023-08-04T11:18:56.508Z,23.15
2023-08-04T11:21:25.501Z,23.15
2023-08-04T11:23:52.369Z,22.56
2023-08-04T11:26:19.370Z,22.42
2023-08-04T11:28:46.643Z,22.50
2023-08-04T11:31:13.629Z,22.54
2023-08-04T11:33:52.160Z,22.85
2023-08-04T11:36:19.646Z,23.29
2023-08-04T11:38:46.552Z,23.19
2023-08-04T11:41:14.441Z,22.72
2023-08-04T11:43:44.448Z,23.13
2023-08-04T11:46:11.581Z,23.32
2023-08-04T11:48:44.096Z,23.29
2023-08-04T11:51:13.825Z,23.33
2023-08-04T11:53:47.478Z,23.17
2023-08-04T11:56:29.002Z,23.35
2023-08-04T11:59:10.800Z,23.00
2023-08-04T12:01:39.052Z,23.46
2023-08-04T12:04:31.057Z,22.87
2023-08-04T12:07:08.410Z,23.67
2023-08-04T12:09:39.203Z,23.15
2023-08-04T12:12:49.870Z,23.88
2023-08-04T12:16:27.055Z,22.67
2023-08-04T12:18:54.762Z,23.48
2023-08-04T12:21:23.410Z,23.63
2023-08-04T12:23:57.082Z,24.19
2023-08-04T12:26:25.106Z,22.68
2023-08-04T12:28:52.279Z,24.12
2023-08-04T12:31:19.332Z,23.25
2023-08-04T12:33:55.675Z,23.34
2023-08-04T12:36:25.865Z,23.36
2023-08-04T12:38:52.864Z,23.49
2023-08-04T12:41:25.450Z,23.74
2023-08-04T12:43:59.870Z,24.81
2023-08-04T12:47:00.171Z,24.14
2023-08-04T12:49:54.114Z,23.79
2023-08-04T12:52:33.236Z,24.59
2023-08-04T12:55:09.608Z,24.58
2023-08-04T12:57:53.801Z,24.26
2023-08-04T13:00:21.110Z,24.92
2023-08-04T13:02:59.798Z,25.79
2023-08-04T13:05:43.206Z,25.85
2023-08-04T13:08:10.408Z,25.10
2023-08-04T13:10:40.621Z,25.46
2023-08-04T13:13:07.648Z,25.69
2023-08-04T13:15:35.866Z,25.44
2023-08-04T13:18:07.901Z,26.26
2023-08-04T13:20:38.379Z,25.52
2023-08-04T13:23:07.512Z,25.48
2023-08-04T13:25:42.475Z,25.47
2023-08-04T13:28:09.709Z,26.30
2023-08-04T13:30:36.709Z,25.28
2023-08-04T13:33:03.766Z,26.31
2023-08-04T13:35:33.142Z,25.92
2023-08-04T13:38:00.104Z,25.11
2023-08-04T13:40:27.157Z,25.14
2023-08-04T13:42:53.922Z,26.25
2023-08-04T13:45:20.771Z,25.66
2023-08-04T13:47:49.134Z,25.87
2023-08-04T13:50:16.340Z,25.52
2023-08-04T13:52:43.362Z,25.41
2023-08-04T13:55:10.376Z,25.32
2023-08-04T13:57:41.578Z,25.70
2023-08-04T14:00:10.599Z,25.36
2023-08-04T14:02:39.064Z,25.21
2023-08-04T14:05:09.262Z,24.75
2023-08-04T14:07:39.393Z,25.28
2023-08-04T14:10:09.607Z,26.04
2023-08-04T14:12:36.837Z,25.27
2023-08-04T14:15:04.869Z,25.69
2023-08-04T14:17:32.122Z,25.77
2023-08-04T14:19:59.171Z,25.63
2023-08-04T14:22:26.248Z,25.94
2023-08-04T14:24:53.363Z,25.72
2023-08-04T14:27:30.833Z,25.51
2023-08-04T14:29:58.882Z,26.10
2023-08-04T14:32:26.097Z,26.32
2023-08-04T14:34:53.064Z,26.48
2023-08-04T14:37:19.895Z,26.39
2023-08-04T14:39:47.212Z,26.49
2023-08-04T14:42:13.955Z,25.94
2023-08-04T14:44:41.366Z,25.76
2023-08-04T14:47:08.456Z,27.03
2023-08-04T14:49:35.401Z,26.84
2023-08-04T14:52:02.622Z,27.35
2023-08-04T14:54:29.702Z,27.10
2023-08-04T14:56:56.678Z,26.88
2023-08-04T14:59:23.757Z,27.40
2023-08-04T15:01:51.095Z,27.43
2023-08-04T15:04:21.160Z,27.91
2023-08-04T15:06:48.395Z,27.52
2023-08-04T15:09:15.125Z,26.73
2023-08-04T15:11:43.815Z,27.27
2023-08-04T15:14:11.355Z,28.12
2023-08-04T15:16:47.743Z,27.33
2023-08-04T15:19:15.097Z,27.06
2023-08-04T15:21:47.729Z,27.26
2023-08-04T15:24:14.956Z,27.32
2023-08-04T15:26:41.871Z,28.12
2023-08-04T15:29:11.080Z,27.67
2023-08-04T15:31:38.355Z,26.90
2023-08-04T15:34:08.641Z,28.13
2023-08-04T15:36:35.983Z,27.71
2023-08-04T15:39:03.665Z,27.43
2023-08-04T15:41:30.910Z,27.81
2023-08-04T15:43:58.344Z,27.80
2023-08-04T15:46:26.159Z,26.81
2023-08-04T15:48:53.114Z,27.68
2023-08-04T15:51:19.980Z,27.80
2023-08-04T15:53:50.033Z,28.16
2023-08-04T15:56:16.855Z,27.82
2023-08-04T15:58:43.941Z,27.62
2023-08-04T16:01:11.091Z,27.31
2023-08-04T16:03:38.068Z,28.01
2023-08-04T16:06:04.906Z,26.74
2023-08-04T16:08:32.210Z,27.19
2023-08-04T16:11:06.863Z,27.87
2023-08-04T16:13:33.830Z,27.85
2023-08-04T16:16:04.734Z,27.51
2023-08-04T16:18:32.880Z,27.71
2023-08-04T16:21:00.440Z,27.33
2023-08-04T16:23:27.970Z,26.72
2023-08-04T16:25:55.182Z,26.64
2023-08-04T16:28:22.572Z,26.60
2023-08-04T16:30:49.792Z,26.53
2023-08-04T16:33:18.377Z,26.10
2023-08-04T16:35:47.313Z,25.87
2023-08-04T16:38:17.307Z,26.70
2023-08-04T16:40:44.306Z,27.07
2023-08-04T16:43:14.847Z,26.08
2023-08-04T16:45:43.304Z,26.93
2023-08-04T16:48:11.932Z,26.48
2023-08-04T16:50:39.091Z,26.02
2023-08-04T16:53:06.619Z,25.94
2023-08-04T16:55:38.357Z,25.80
2023-08-04T16:58:05.091Z,26.02
2023-08-04T17:00:34.480Z,26.07
2023-08-04T17:03:01.896Z,26.04
2023-08-04T17:05:35.348Z,26.43
2023-08-04T17:08:02.629Z,25.52
2023-08-04T17:10:32.210Z,25.76
2023-08-04T17:12:59.137Z,26.25
2023-08-04T17:15:36.561Z,25.42
2023-08-04T17:18:04.975Z,26.15
2023-08-04T17:20:39.905Z,25.25
2023-08-04T17:23:06.756Z,24.81
2023-08-04T17:25:38.658Z,24.58
2023-08-04T17:28:05.875Z,24.42
2023-08-04T17:30:38.712Z,24.64
2023-08-04T17:33:05.591Z,25.66
2023-08-04T17:35:35.120Z,25.25
2023-08-04T17:38:02.033Z,24.29
2023-08-04T17:40:29.645Z,24.90
2023-08-04T17:42:56.528Z,24.88
2023-08-04T17:45:23.525Z,24.13
2023-08-04T17:47:50.944Z,25.05
2023-08-04T17:50:17.994Z,24.99
2023-08-04T17:52:45.022Z,25.03
2023-08-04T17:55:14.873Z,24.17
2023-08-04T17:57:49.667Z,24.69
2023-08-04T18:00:17.065Z,23.97
2023-08-04T18:02:44.350Z,24.11
2023-08-04T18:05:11.668Z,25.05
2023-08-04T18:07:38.691Z,24.24
2023-08-04T18:10:06.578Z,24.36
2023-08-04T18:12:33.477Z,24.74
2023-08-04T18:15:00.787Z,24.51
2023-08-04T18:17:28.039Z,24.05
2023-08-04T18:19:54.882Z,23.91
2023-08-04T18:30:46.081Z,22.83
2023-08-04T18:33:38.859Z,24.17
2023-08-04T18:36:18.329Z,23.90
2023-08-04T18:41:47.893Z,23.05
2023-08-04T18:44:14.837Z,23.86
2023-08-04T18:46:46.601Z,23.12
2023-08-04T18:49:13.967Z,23.20
2023-08-04T18:51:40.856Z,21.81
2023-08-04T18:54:07.979Z,23.04
2023-08-04T18:56:37.573Z,22.53
2023-08-04T18:59:05.462Z,22.87
2023-08-04T19:01:32.554Z,22.43
2023-08-04T19:04:44.996Z,23.23
2023-08-04T19:07:12.837Z,22.57
2023-08-04T19:09:40.988Z,21.71
2023-08-04T19:12:08.378Z,22.85
2023-08-04T19:14:40.196Z,22.90
2023-08-04T19:17:52.912Z,22.83
2023-08-04T19:20:20.937Z,21.42
2023-08-04T19:22:48.372Z,20.81
2023-08-04T19:25:15.410Z,21.02
2023-08-04T19:27:42.592Z,22.50
2023-08-04T19:30:13.334Z,21.70
2023-08-04T19:32:40.106Z,22.24
2023-08-04T19:35:11.248Z,22.25
2023-08-04T19:37:38.332Z,22.25
2023-08-04T19:40:08.525Z,22.10
2023-08-04T19:42:37.690Z,21.99
2023-08-04T19:45:05.098Z,21.24
2023-08-04T19:47:35.787Z,21.65
2023-08-04T19:50:05.454Z,21.78
2023-08-04T19:52:32.717Z,20.98
2023-08-04T19:58:01.539Z,20.13
2023-08-04T20:00:31.165Z,20.33
2023-08-04T20:02:58.742Z,19.37
2023-08-04T20:05:25.688Z,21.09
2023-08-04T20:07:52.974Z,20.40
2023-08-04T20:10:19.931Z,20.28
2023-08-04T20:12:46.859Z,19.63
2023-08-04T20:15:13.767Z,19.67
2023-08-04T20:17:41.033Z,20.26
2023-08-04T20:20:08.993Z,19.68
2023-08-04T20:22:37.027Z,20.69
2023-08-04T20:25:04.573Z,20.58
2023-08-04T20:27:31.627Z,19.13
2023-08-04T20:29:58.800Z,19.53
2023-08-04T20:32:28.526Z,19.50
2023-08-04T20:34:55.563Z,19.41
2023-08-04T20:37:22.684Z,19.79
2023-08-04T20:39:52.929Z,20.28
2023-08-04T20:42:20.284Z,20.22
2023-08-04T20:44:57.230Z,19.21
2023-08-04T20:47:24.461Z,19.32
2023-08-04T20:49:51.563Z,20.07
2023-08-04T20:52:21.569Z,20.02
2023-08-04T20:54:48.478Z,18.40
2023-08-04T20:57:15.261Z,18.71
2023-08-04T20:59:42.639Z,19.55
2023-08-04T21:02:09.596Z,18.47
2023-08-04T21:04:39.796Z,19.35
2023-08-04T21:07:08.301Z,19.16
2023-08-04T21:09:35.245Z,19.59
2023-08-04T21:12:02.260Z,19.21
2023-08-04T21:14:29.028Z,18.99
2023-08-04T21:16:55.755Z,18.80
2023-08-04T21:19:22.630Z,19.65
2023-08-04T21:21:49.629Z,18.93
2023-08-04T21:24:16.713Z,19.00
2023-08-04T21:26:43.526Z,18.93
2023-08-04T21:29:14.625Z,19.16
2023-08-04T21:31:45.467Z,18.17
2023-08-04T21:34:12.438Z,18.41
2023-08-04T21:36:39.592Z,18.66
2023-08-04T21:39:06.535Z,19.08
2023-08-04T21:41:33.695Z,18.98
2023-08-04T21:44:02.824Z,19.21
2023-08-04T21:46:32.839Z,19.16
2023-08-04T21:48:59.658Z,18.31
2023-08-04T21:51:26.422Z,18.86
2023-08-04T21:53:53.272Z,18.99
2023-08-04T21:56:20.065Z,19.08
2023-08-04T21:58:49.063Z,18.15
2023-08-04T22:01:15.863Z,18.72
2023-08-04T22:03:42.754Z,18.60
2023-08-04T22:06:09.775Z,17.56
2023-08-04T22:08:36.636Z,17.81
2023-08-04T22:11:10.582Z,18.15
2023-08-04T22:13:39.874Z,17.71
2023-08-04T22:16:07.757Z,18.71
2023-08-04T22:18:35.990Z,17.39
2023-08-04T22:21:05.318Z,17.64
2023-08-04T22:23:32.148Z,18.39
2023-08-04T22:26:01.281Z,17.97
2023-08-04T22:28:33.735Z,18.54
2023-08-04T22:31:03.854Z,17.49
2023-08-04T22:33:37.233Z,17.98
2023-08-04T22:36:06.782Z,18.12
2023-08-04T22:38:33.410Z,18.25
2023-08-04T22:41:01.184Z,17.81
2023-08-04T22:43:31.803Z,18.28
2023-08-04T22:45:58.618Z,17.89
2023-08-04T22:48:28.462Z,18.11
2023-08-04T22:50:55.359Z,17.35
2023-08-04T22:53:22.192Z,16.73
2023-08-04T22:55:49.105Z,18.00
2023-08-04T22:58:16.228Z,17.48
2023-08-04T23:00:42.994Z,17.50
2023-08-04T23:03:10.660Z,17.66
2023-08-04T23:05:37.679Z,18.22
2023-08-04T23:08:04.943Z,16.92
2023-08-04T23:10:32.101Z,16.92
2023-08-04T23:12:58.986Z,18.13
2023-08-04T23:15:25.867Z,16.56
2023-08-04T23:17:52.626Z,16.63
2023-08-04T23:20:19.392Z,16.77
2023-08-04T23:22:46.159Z,18.04
2023-08-04T23:25:13.030Z,17.89
2023-08-04T23:27:39.840Z,16.93
2023-08-04T23:30:07.447Z,17.69
2023-08-04T23:32:34.841Z,16.41
2023-08-04T23:35:01.846Z,16.90
2023-08-04T23:37:33.394Z,17.81
2023-08-04T23:40:00.429Z,17.17
2023-08-04T23:42:27.906Z,16.71
2023-08-04T23:44:58.026Z,17.82
2023-08-04T23:47:24.939Z,17.22
2023-08-04T23:49:51.770Z,17.70
2023-08-04T23:52:20.988Z,16.56
2023-08-04T23:54:47.915Z,17.13
2023-08-04T23:57:14.951Z,16.82
2023-08-04T23:59:41.838Z,17.80
